sensor_id;sensor_type;location;lat;lon;timestamp;P1;durP1;ratioP1;P2;durP2;ratioP2
25237;SDS011;13185;50.872;5.306;2022-12-18T00:01:42;45.13;;;22.73;;
25237;SDS011;13185;50.872;5.306;2022-12-18T00:04:12;50.57;;;22.87;;
25237;SDS011;13185;50.872;5.306;2022-12-18T00:06:45;49.70;;;23.77;;
25237;SDS011;13185;50.872;5.306;2022-12-18T00:09:10;55.10;;;24.97;;
25237;SDS011;13185;50.872;5.306;2022-12-18T00:11:35;53.17;;;24.57;;
25237;SDS011;13185;50.872;5.306;2022-12-18T00:14:01;53.70;;;23.13;;
25237;SDS011;13185;50.872;5.306;2022-12-18T00:16:27;47.03;;;23.73;;
25237;SDS011;13185;50.872;5.306;2022-12-18T00:18:56;50.40;;;22.73;;
25237;SDS011;13185;50.872;5.306;2022-12-18T00:21:22;47.33;;;22.47;;
25237;SDS011;13185;50.872;5.306;2022-12-18T00:23:48;49.67;;;22.57;;
25237;SDS011;13185;50.872;5.306;2022-12-18T00:26:16;47.73;;;22.00;;
25237;SDS011;13185;50.872;5.306;2022-12-18T00:28:44;46.27;;;22.03;;
25237;SDS011;13185;50.872;5.306;2022-12-18T00:31:12;53.90;;;23.70;;
25237;SDS011;13185;50.872;5.306;2022-12-18T00:33:39;51.53;;;23.83;;
25237;SDS011;13185;50.872;5.306;2022-12-18T00:36:12;46.33;;;21.73;;
25237;SDS011;13185;50.872;5.306;2022-12-18T00:38:39;47.53;;;22.33;;
25237;SDS011;13185;50.872;5.306;2022-12-18T00:41:05;45.07;;;22.77;;
25237;SDS011;13185;50.872;5.306;2022-12-18T00:43:34;46.73;;;22.47;;
25237;SDS011;13185;50.872;5.306;2022-12-18T00:45:59;45.90;;;22.90;;
25237;SDS011;13185;50.872;5.306;2022-12-18T00:48:25;47.10;;;22.53;;
25237;SDS011;13185;50.872;5.306;2022-12-18T00:50:51;49.27;;;23.47;;
25237;SDS011;13185;50.872;5.306;2022-12-18T00:53:16;46.63;;;22.37;;
25237;SDS011;13185;50.872;5.306;2022-12-18T00:55:42;48.87;;;23.13;;
25237;SDS011;13185;50.872;5.306;2022-12-18T00:58:10;46.17;;;22.23;;
25237;SDS011;13185;50.872;5.306;2022-12-18T01:00:37;51.20;;;22.20;;
25237;SDS011;13185;50.872;5.306;2022-12-18T01:03:03;47.70;;;24.13;;
25237;SDS011;13185;50.872;5.306;2022-12-18T01:05:29;47.77;;;22.00;;
25237;SDS011;13185;50.872;5.306;2022-12-18T01:10:21;53.47;;;22.93;;
25237;SDS011;13185;50.872;5.306;2022-12-18T01:12:46;49.93;;;22.87;;
25237;SDS011;13185;50.872;5.306;2022-12-18T01:15:12;43.30;;;21.70;;
25237;SDS011;13185;50.872;5.306;2022-12-18T01:17:39;49.93;;;23.77;;
25237;SDS011;13185;50.872;5.306;2022-12-18T01:20:04;47.57;;;22.70;;
25237;SDS011;13185;50.872;5.306;2022-12-18T01:22:33;46.80;;;22.13;;
25237;SDS011;13185;50.872;5.306;2022-12-18T01:24:59;46.67;;;22.00;;
25237;SDS011;13185;50.872;5.306;2022-12-18T01:27:24;48.37;;;22.90;;
25237;SDS011;13185;50.872;5.306;2022-12-18T01:29:50;43.20;;;20.13;;
25237;SDS011;13185;50.872;5.306;2022-12-18T01:32:18;44.47;;;21.73;;
25237;SDS011;13185;50.872;5.306;2022-12-18T01:34:44;50.03;;;20.63;;
25237;SDS011;13185;50.872;5.306;2022-12-18T01:37:09;47.37;;;21.60;;
25237;SDS011;13185;50.872;5.306;2022-12-18T01:39:35;50.13;;;23.60;;
25237;SDS011;13185;50.872;5.306;2022-12-18T01:42:05;45.23;;;21.80;;
25237;SDS011;13185;50.872;5.306;2022-12-18T01:44:47;46.33;;;22.10;;
25237;SDS011;13185;50.872;5.306;2022-12-18T01:47:35;49.43;;;23.73;;
25237;SDS011;13185;50.872;5.306;2022-12-18T01:50:24;53.67;;;22.03;;
25237;SDS011;13185;50.872;5.306;2022-12-18T01:52:53;51.73;;;23.63;;
25237;SDS011;13185;50.872;5.306;2022-12-18T01:55:24;43.43;;;21.27;;
25237;SDS011;13185;50.872;5.306;2022-12-18T01:57:54;46.67;;;21.17;;
25237;SDS011;13185;50.872;5.306;2022-12-18T02:00:22;43.30;;;22.03;;
25237;SDS011;13185;50.872;5.306;2022-12-18T02:02:50;50.70;;;21.47;;
25237;SDS011;13185;50.872;5.306;2022-12-18T02:05:29;46.93;;;21.33;;
25237;SDS011;13185;50.872;5.306;2022-12-18T02:08:00;45.50;;;21.20;;
25237;SDS011;13185;50.872;5.306;2022-12-18T02:10:48;46.73;;;22.03;;
25237;SDS011;13185;50.872;5.306;2022-12-18T02:13:32;46.43;;;22.77;;
25237;SDS011;13185;50.872;5.306;2022-12-18T02:18:43;55.00;;;22.70;;
25237;SDS011;13185;50.872;5.306;2022-12-18T02:26:56;47.83;;;21.70;;
25237;SDS011;13185;50.872;5.306;2022-12-18T02:29:29;41.70;;;21.23;;
25237;SDS011;13185;50.872;5.306;2022-12-18T02:31:57;48.17;;;22.03;;
25237;SDS011;13185;50.872;5.306;2022-12-18T02:34:26;48.33;;;22.30;;
25237;SDS011;13185;50.872;5.306;2022-12-18T02:36:57;43.70;;;21.17;;
25237;SDS011;13185;50.872;5.306;2022-12-18T02:39:26;43.37;;;21.53;;
25237;SDS011;13185;50.872;5.306;2022-12-18T02:42:01;40.13;;;21.40;;
25237;SDS011;13185;50.872;5.306;2022-12-18T02:44:33;46.53;;;20.00;;
25237;SDS011;13185;50.872;5.306;2022-12-18T02:47:01;48.23;;;22.10;;
25237;SDS011;13185;50.872;5.306;2022-12-18T02:52:55;50.23;;;20.67;;
25237;SDS011;13185;50.872;5.306;2022-12-18T03:01:33;42.03;;;19.43;;
25237;SDS011;13185;50.872;5.306;2022-12-18T03:04:02;40.75;;;18.95;;
25237;SDS011;13185;50.872;5.306;2022-12-18T03:06:35;41.50;;;19.08;;
25237;SDS011;13185;50.872;5.306;2022-12-18T03:09:08;42.70;;;19.73;;
25237;SDS011;13185;50.872;5.306;2022-12-18T03:11:37;45.10;;;20.37;;
25237;SDS011;13185;50.872;5.306;2022-12-18T03:14:26;38.10;;;18.80;;
25237;SDS011;13185;50.872;5.306;2022-12-18T03:16:57;36.40;;;17.97;;
25237;SDS011;13185;50.872;5.306;2022-12-18T03:19:28;36.83;;;18.17;;
25237;SDS011;13185;50.872;5.306;2022-12-18T03:21:59;37.07;;;19.07;;
25237;SDS011;13185;50.872;5.306;2022-12-18T03:24:38;43.17;;;18.93;;
25237;SDS011;13185;50.872;5.306;2022-12-18T03:27:07;41.70;;;18.93;;
25237;SDS011;13185;50.872;5.306;2022-12-18T03:29:42;45.67;;;19.23;;
25237;SDS011;13185;50.872;5.306;2022-12-18T03:32:21;36.33;;;17.93;;
25237;SDS011;13185;50.872;5.306;2022-12-18T03:34:53;36.93;;;18.60;;
25237;SDS011;13185;50.872;5.306;2022-12-18T03:37:24;40.63;;;18.70;;
25237;SDS011;13185;50.872;5.306;2022-12-18T03:39:51;40.63;;;19.97;;
25237;SDS011;13185;50.872;5.306;2022-12-18T03:50:30;43.77;;;18.17;;
25237;SDS011;13185;50.872;5.306;2022-12-18T03:56:15;36.97;;;19.50;;
25237;SDS011;13185;50.872;5.306;2022-12-18T03:58:42;39.73;;;18.77;;
25237;SDS011;13185;50.872;5.306;2022-12-18T04:01:16;38.63;;;18.83;;
25237;SDS011;13185;50.872;5.306;2022-12-18T04:03:45;37.10;;;17.33;;
25237;SDS011;13185;50.872;5.306;2022-12-18T04:06:16;42.00;;;19.00;;
25237;SDS011;13185;50.872;5.306;2022-12-18T04:08:43;41.87;;;17.97;;
25237;SDS011;13185;50.872;5.306;2022-12-18T04:11:14;40.23;;;18.63;;
25237;SDS011;13185;50.872;5.306;2022-12-18T04:13:42;36.83;;;17.37;;
25237;SDS011;13185;50.872;5.306;2022-12-18T04:16:15;36.45;;;17.50;;
25237;SDS011;13185;50.872;5.306;2022-12-18T04:18:43;44.73;;;17.27;;
25237;SDS011;13185;50.872;5.306;2022-12-18T04:21:09;36.27;;;17.33;;
25237;SDS011;13185;50.872;5.306;2022-12-18T04:23:36;38.10;;;17.23;;
25237;SDS011;13185;50.872;5.306;2022-12-18T04:26:01;35.50;;;18.00;;
25237;SDS011;13185;50.872;5.306;2022-12-18T04:28:50;35.03;;;18.07;;
25237;SDS011;13185;50.872;5.306;2022-12-18T04:31:16;34.30;;;16.40;;
25237;SDS011;13185;50.872;5.306;2022-12-18T04:33:41;36.57;;;17.53;;
25237;SDS011;13185;50.872;5.306;2022-12-18T04:36:08;35.80;;;17.90;;
25237;SDS011;13185;50.872;5.306;2022-12-18T04:38:33;37.53;;;18.00;;
25237;SDS011;13185;50.872;5.306;2022-12-18T04:41:05;37.33;;;18.07;;
25237;SDS011;13185;50.872;5.306;2022-12-18T04:43:31;34.50;;;16.63;;
25237;SDS011;13185;50.872;5.306;2022-12-18T04:46:02;35.73;;;18.47;;
25237;SDS011;13185;50.872;5.306;2022-12-18T04:48:28;37.67;;;18.20;;
25237;SDS011;13185;50.872;5.306;2022-12-18T04:50:54;35.57;;;17.10;;
25237;SDS011;13185;50.872;5.306;2022-12-18T04:53:19;40.87;;;18.50;;
25237;SDS011;13185;50.872;5.306;2022-12-18T04:55:45;40.37;;;18.20;;
25237;SDS011;13185;50.872;5.306;2022-12-18T04:58:10;36.73;;;19.17;;
25237;SDS011;13185;50.872;5.306;2022-12-18T05:00:35;36.83;;;17.60;;
25237;SDS011;13185;50.872;5.306;2022-12-18T05:03:01;35.93;;;18.33;;
25237;SDS011;13185;50.872;5.306;2022-12-18T05:05:27;35.77;;;17.43;;
25237;SDS011;13185;50.872;5.306;2022-12-18T05:07:53;36.63;;;17.13;;
25237;SDS011;13185;50.872;5.306;2022-12-18T05:10:18;33.90;;;16.70;;
25237;SDS011;13185;50.872;5.306;2022-12-18T05:12:43;35.00;;;16.77;;
25237;SDS011;13185;50.872;5.306;2022-12-18T05:15:28;42.30;;;17.97;;
25237;SDS011;13185;50.872;5.306;2022-12-18T05:17:55;36.87;;;18.07;;
25237;SDS011;13185;50.872;5.306;2022-12-18T05:20:21;37.70;;;17.70;;
25237;SDS011;13185;50.872;5.306;2022-12-18T05:22:47;34.33;;;17.10;;
25237;SDS011;13185;50.872;5.306;2022-12-18T05:25:12;33.97;;;17.47;;
25237;SDS011;13185;50.872;5.306;2022-12-18T05:27:38;33.97;;;17.10;;
25237;SDS011;13185;50.872;5.306;2022-12-18T05:30:03;32.20;;;15.73;;
25237;SDS011;13185;50.872;5.306;2022-12-18T05:32:29;33.63;;;17.33;;
25237;SDS011;13185;50.872;5.306;2022-12-18T05:34:54;32.57;;;16.07;;
25237;SDS011;13185;50.872;5.306;2022-12-18T05:37:22;30.87;;;15.37;;
25237;SDS011;13185;50.872;5.306;2022-12-18T05:39:48;32.60;;;16.30;;
25237;SDS011;13185;50.872;5.306;2022-12-18T05:42:13;34.27;;;17.10;;
25237;SDS011;13185;50.872;5.306;2022-12-18T05:44:39;34.77;;;16.33;;
25237;SDS011;13185;50.872;5.306;2022-12-18T05:47:04;34.13;;;15.77;;
25237;SDS011;13185;50.872;5.306;2022-12-18T05:49:30;33.27;;;16.23;;
25237;SDS011;13185;50.872;5.306;2022-12-18T05:51:55;30.83;;;15.07;;
25237;SDS011;13185;50.872;5.306;2022-12-18T05:54:21;33.43;;;15.87;;
25237;SDS011;13185;50.872;5.306;2022-12-18T05:56:46;33.57;;;15.80;;
25237;SDS011;13185;50.872;5.306;2022-12-18T05:59:12;34.10;;;16.83;;
25237;SDS011;13185;50.872;5.306;2022-12-18T06:01:38;30.40;;;15.23;;
25237;SDS011;13185;50.872;5.306;2022-12-18T06:04:03;33.80;;;17.17;;
25237;SDS011;13185;50.872;5.306;2022-12-18T06:06:29;34.57;;;16.20;;
25237;SDS011;13185;50.872;5.306;2022-12-18T06:08:54;32.33;;;15.83;;
25237;SDS011;13185;50.872;5.306;2022-12-18T06:11:22;34.73;;;16.40;;
25237;SDS011;13185;50.872;5.306;2022-12-18T06:13:49;30.57;;;14.77;;
25237;SDS011;13185;50.872;5.306;2022-12-18T06:16:16;33.67;;;15.17;;
25237;SDS011;13185;50.872;5.306;2022-12-18T06:18:42;34.17;;;14.97;;
25237;SDS011;13185;50.872;5.306;2022-12-18T06:21:07;29.73;;;15.03;;
25237;SDS011;13185;50.872;5.306;2022-12-18T06:23:33;34.27;;;17.47;;
25237;SDS011;13185;50.872;5.306;2022-12-18T06:25:58;32.50;;;15.10;;
25237;SDS011;13185;50.872;5.306;2022-12-18T06:28:27;30.87;;;15.17;;
25237;SDS011;13185;50.872;5.306;2022-12-18T06:30:53;32.43;;;15.40;;
25237;SDS011;13185;50.872;5.306;2022-12-18T06:33:18;31.70;;;14.80;;
25237;SDS011;13185;50.872;5.306;2022-12-18T06:35:44;30.53;;;15.13;;
25237;SDS011;13185;50.872;5.306;2022-12-18T06:38:09;34.57;;;15.73;;
25237;SDS011;13185;50.872;5.306;2022-12-18T06:40:36;28.27;;;14.93;;
25237;SDS011;13185;50.872;5.306;2022-12-18T06:43:03;29.37;;;14.67;;
25237;SDS011;13185;50.872;5.306;2022-12-18T06:45:28;29.60;;;14.83;;
25237;SDS011;13185;50.872;5.306;2022-12-18T06:47:54;31.53;;;15.10;;
25237;SDS011;13185;50.872;5.306;2022-12-18T06:50:19;32.73;;;15.33;;
25237;SDS011;13185;50.872;5.306;2022-12-18T06:52:44;26.80;;;14.37;;
25237;SDS011;13185;50.872;5.306;2022-12-18T06:55:10;29.03;;;14.03;;
25237;SDS011;13185;50.872;5.306;2022-12-18T06:57:37;28.03;;;13.30;;
25237;SDS011;13185;50.872;5.306;2022-12-18T07:00:04;28.83;;;14.00;;
25237;SDS011;13185;50.872;5.306;2022-12-18T07:02:30;26.00;;;13.40;;
25237;SDS011;13185;50.872;5.306;2022-12-18T07:04:56;28.03;;;14.10;;
25237;SDS011;13185;50.872;5.306;2022-12-18T07:07:21;28.60;;;14.03;;
25237;SDS011;13185;50.872;5.306;2022-12-18T07:09:48;26.10;;;13.53;;
25237;SDS011;13185;50.872;5.306;2022-12-18T07:12:14;25.70;;;12.33;;
25237;SDS011;13185;50.872;5.306;2022-12-18T07:14:40;27.70;;;12.90;;
25237;SDS011;13185;50.872;5.306;2022-12-18T07:17:05;25.87;;;12.60;;
25237;SDS011;13185;50.872;5.306;2022-12-18T07:19:31;24.13;;;12.67;;
25237;SDS011;13185;50.872;5.306;2022-12-18T07:21:56;28.50;;;12.80;;
25237;SDS011;13185;50.872;5.306;2022-12-18T07:24:22;24.37;;;12.03;;
25237;SDS011;13185;50.872;5.306;2022-12-18T07:26:47;23.93;;;11.43;;
25237;SDS011;13185;50.872;5.306;2022-12-18T07:29:13;22.70;;;10.83;;
25237;SDS011;13185;50.872;5.306;2022-12-18T07:31:38;23.27;;;11.00;;
25237;SDS011;13185;50.872;5.306;2022-12-18T07:34:04;23.00;;;11.57;;
25237;SDS011;13185;50.872;5.306;2022-12-18T07:36:29;22.40;;;11.57;;
25237;SDS011;13185;50.872;5.306;2022-12-18T07:38:55;19.23;;;11.20;;
25237;SDS011;13185;50.872;5.306;2022-12-18T07:41:21;19.73;;;10.63;;
25237;SDS011;13185;50.872;5.306;2022-12-18T07:43:46;18.80;;;10.13;;
25237;SDS011;13185;50.872;5.306;2022-12-18T07:46:13;21.17;;;10.27;;
25237;SDS011;13185;50.872;5.306;2022-12-18T07:48:42;19.33;;;10.13;;
25237;SDS011;13185;50.872;5.306;2022-12-18T07:51:08;19.77;;;9.93;;
25237;SDS011;13185;50.872;5.306;2022-12-18T07:53:34;17.30;;;9.93;;
25237;SDS011;13185;50.872;5.306;2022-12-18T07:56:01;19.77;;;8.83;;
25237;SDS011;13185;50.872;5.306;2022-12-18T07:58:30;18.17;;;9.87;;
25237;SDS011;13185;50.872;5.306;2022-12-18T08:01:02;19.10;;;9.07;;
25237;SDS011;13185;50.872;5.306;2022-12-18T08:03:36;16.00;;;8.80;;
25237;SDS011;13185;50.872;5.306;2022-12-18T08:06:03;20.93;;;9.73;;
25237;SDS011;13185;50.872;5.306;2022-12-18T08:08:30;16.03;;;8.70;;
25237;SDS011;13185;50.872;5.306;2022-12-18T08:10:56;16.07;;;9.00;;
25237;SDS011;13185;50.872;5.306;2022-12-18T08:13:22;20.47;;;8.37;;
25237;SDS011;13185;50.872;5.306;2022-12-18T08:16:06;17.13;;;8.70;;
25237;SDS011;13185;50.872;5.306;2022-12-18T08:18:32;19.53;;;9.97;;
25237;SDS011;13185;50.872;5.306;2022-12-18T08:21:07;15.60;;;8.77;;
25237;SDS011;13185;50.872;5.306;2022-12-18T08:23:43;18.20;;;8.73;;
25237;SDS011;13185;50.872;5.306;2022-12-18T08:26:10;17.77;;;9.00;;
25237;SDS011;13185;50.872;5.306;2022-12-18T08:28:37;16.07;;;8.60;;
25237;SDS011;13185;50.872;5.306;2022-12-18T08:31:06;16.23;;;8.90;;
25237;SDS011;13185;50.872;5.306;2022-12-18T08:33:33;18.20;;;9.67;;
25237;SDS011;13185;50.872;5.306;2022-12-18T08:35:59;19.33;;;9.60;;
25237;SDS011;13185;50.872;5.306;2022-12-18T08:38:26;16.83;;;8.90;;
25237;SDS011;13185;50.872;5.306;2022-12-18T08:41:01;16.83;;;9.70;;
25237;SDS011;13185;50.872;5.306;2022-12-18T08:43:28;17.17;;;9.40;;
25237;SDS011;13185;50.872;5.306;2022-12-18T08:46:17;20.13;;;10.27;;
25237;SDS011;13185;50.872;5.306;2022-12-18T08:48:44;17.63;;;10.07;;
25237;SDS011;13185;50.872;5.306;2022-12-18T08:51:10;17.07;;;9.60;;
25237;SDS011;13185;50.872;5.306;2022-12-18T08:53:36;18.73;;;9.40;;
25237;SDS011;13185;50.872;5.306;2022-12-18T08:56:02;18.47;;;10.07;;
25237;SDS011;13185;50.872;5.306;2022-12-18T08:58:29;21.67;;;10.97;;
25237;SDS011;13185;50.872;5.306;2022-12-18T09:00:59;17.73;;;9.87;;
25237;SDS011;13185;50.872;5.306;2022-12-18T09:05:54;19.03;;;9.33;;
25237;SDS011;13185;50.872;5.306;2022-12-18T09:08:19;18.53;;;9.83;;
25237;SDS011;13185;50.872;5.306;2022-12-18T09:10:45;19.27;;;9.87;;
25237;SDS011;13185;50.872;5.306;2022-12-18T09:13:13;15.87;;;8.83;;
25237;SDS011;13185;50.872;5.306;2022-12-18T09:15:46;15.33;;;9.37;;
25237;SDS011;13185;50.872;5.306;2022-12-18T09:18:18;15.50;;;9.13;;
25237;SDS011;13185;50.872;5.306;2022-12-18T09:20:45;17.80;;;10.23;;
25237;SDS011;13185;50.872;5.306;2022-12-18T09:23:11;16.33;;;9.70;;
25237;SDS011;13185;50.872;5.306;2022-12-18T09:25:37;17.70;;;9.63;;
25237;SDS011;13185;50.872;5.306;2022-12-18T09:28:05;16.97;;;9.67;;
25237;SDS011;13185;50.872;5.306;2022-12-18T09:30:37;19.53;;;10.50;;
25237;SDS011;13185;50.872;5.306;2022-12-18T09:33:03;20.87;;;9.30;;
25237;SDS011;13185;50.872;5.306;2022-12-18T09:35:29;18.83;;;10.30;;
25237;SDS011;13185;50.872;5.306;2022-12-18T09:37:54;14.47;;;8.73;;
25237;SDS011;13185;50.872;5.306;2022-12-18T09:40:21;19.00;;;9.27;;
25237;SDS011;13185;50.872;5.306;2022-12-18T09:42:51;16.43;;;8.97;;
25237;SDS011;13185;50.872;5.306;2022-12-18T09:45:23;14.97;;;9.30;;
25237;SDS011;13185;50.872;5.306;2022-12-18T09:47:49;15.97;;;9.80;;
25237;SDS011;13185;50.872;5.306;2022-12-18T09:50:22;18.03;;;9.73;;
25237;SDS011;13185;50.872;5.306;2022-12-18T09:53:03;17.30;;;10.50;;
25237;SDS011;13185;50.872;5.306;2022-12-18T09:55:34;15.82;;;9.05;;
25237;SDS011;13185;50.872;5.306;2022-12-18T09:58:06;16.47;;;10.03;;
25237;SDS011;13185;50.872;5.306;2022-12-18T10:00:35;18.30;;;9.33;;
25237;SDS011;13185;50.872;5.306;2022-12-18T10:03:03;15.97;;;8.93;;
25237;SDS011;13185;50.872;5.306;2022-12-18T10:05:37;16.70;;;9.17;;
25237;SDS011;13185;50.872;5.306;2022-12-18T10:11:01;17.40;;;10.33;;
25237;SDS011;13185;50.872;5.306;2022-12-18T10:13:55;16.20;;;10.15;;
25237;SDS011;13185;50.872;5.306;2022-12-18T10:16:50;17.20;;;10.23;;
25237;SDS011;13185;50.872;5.306;2022-12-18T10:27:24;13.53;;;8.63;;
25237;SDS011;13185;50.872;5.306;2022-12-18T10:29:51;16.67;;;10.23;;
25237;SDS011;13185;50.872;5.306;2022-12-18T10:32:28;14.87;;;8.67;;
25237;SDS011;13185;50.872;5.306;2022-12-18T10:34:56;15.47;;;9.23;;
25237;SDS011;13185;50.872;5.306;2022-12-18T10:37:24;16.03;;;9.70;;
25237;SDS011;13185;50.872;5.306;2022-12-18T10:42:38;19.43;;;10.27;;
25237;SDS011;13185;50.872;5.306;2022-12-18T10:45:09;14.93;;;9.40;;
25237;SDS011;13185;50.872;5.306;2022-12-18T10:47:47;16.50;;;8.57;;
25237;SDS011;13185;50.872;5.306;2022-12-18T10:53:00;20.00;;;10.27;;
25237;SDS011;13185;50.872;5.306;2022-12-18T10:55:33;17.47;;;9.80;;
25237;SDS011;13185;50.872;5.306;2022-12-18T10:58:24;16.60;;;9.77;;
25237;SDS011;13185;50.872;5.306;2022-12-18T11:03:42;17.33;;;9.30;;
25237;SDS011;13185;50.872;5.306;2022-12-18T11:06:12;18.30;;;9.70;;
25237;SDS011;13185;50.872;5.306;2022-12-18T11:08:38;16.50;;;9.33;;
25237;SDS011;13185;50.872;5.306;2022-12-18T11:11:07;15.43;;;9.40;;
25237;SDS011;13185;50.872;5.306;2022-12-18T11:13:49;15.67;;;9.57;;
25237;SDS011;13185;50.872;5.306;2022-12-18T11:16:23;15.53;;;8.63;;
25237;SDS011;13185;50.872;5.306;2022-12-18T11:18:48;16.73;;;9.60;;
25237;SDS011;13185;50.872;5.306;2022-12-18T11:21:14;16.40;;;9.57;;
25237;SDS011;13185;50.872;5.306;2022-12-18T11:23:47;18.27;;;10.67;;
25237;SDS011;13185;50.872;5.306;2022-12-18T11:26:15;16.50;;;9.67;;
25237;SDS011;13185;50.872;5.306;2022-12-18T11:28:51;19.07;;;9.43;;
25237;SDS011;13185;50.872;5.306;2022-12-18T11:31:32;16.93;;;10.37;;
25237;SDS011;13185;50.872;5.306;2022-12-18T11:36:28;17.07;;;9.63;;
25237;SDS011;13185;50.872;5.306;2022-12-18T11:38:58;20.97;;;11.43;;
25237;SDS011;13185;50.872;5.306;2022-12-18T11:41:32;22.83;;;10.67;;
25237;SDS011;13185;50.872;5.306;2022-12-18T11:44:27;19.88;;;10.95;;
25237;SDS011;13185;50.872;5.306;2022-12-18T11:50:00;17.37;;;9.90;;
25237;SDS011;13185;50.872;5.306;2022-12-18T11:52:35;16.93;;;9.53;;
25237;SDS011;13185;50.872;5.306;2022-12-18T11:55:11;18.07;;;11.47;;
25237;SDS011;13185;50.872;5.306;2022-12-18T11:57:53;17.00;;;10.33;;
25237;SDS011;13185;50.872;5.306;2022-12-18T12:00:27;18.83;;;11.47;;
25237;SDS011;13185;50.872;5.306;2022-12-18T12:03:14;19.47;;;11.70;;
25237;SDS011;13185;50.872;5.306;2022-12-18T12:08:38;17.90;;;10.67;;
25237;SDS011;13185;50.872;5.306;2022-12-18T12:14:04;21.80;;;11.53;;
25237;SDS011;13185;50.872;5.306;2022-12-18T12:17:06;16.20;;;10.17;;
25237;SDS011;13185;50.872;5.306;2022-12-18T12:19:54;23.67;;;11.30;;
25237;SDS011;13185;50.872;5.306;2022-12-18T12:22:48;19.70;;;11.30;;
25237;SDS011;13185;50.872;5.306;2022-12-18T12:25:46;16.13;;;10.97;;
25237;SDS011;13185;50.872;5.306;2022-12-18T12:39:23;20.07;;;11.90;;
25237;SDS011;13185;50.872;5.306;2022-12-18T12:41:55;18.37;;;12.07;;
25237;SDS011;13185;50.872;5.306;2022-12-18T12:44:44;18.07;;;11.70;;
25237;SDS011;13185;50.872;5.306;2022-12-18T12:47:20;19.10;;;11.00;;
25237;SDS011;13185;50.872;5.306;2022-12-18T12:49:51;18.33;;;10.87;;
25237;SDS011;13185;50.872;5.306;2022-12-18T12:52:32;20.10;;;12.27;;
25237;SDS011;13185;50.872;5.306;2022-12-18T12:55:04;19.10;;;11.60;;
25237;SDS011;13185;50.872;5.306;2022-12-18T12:57:38;18.23;;;11.10;;
25237;SDS011;13185;50.872;5.306;2022-12-18T13:00:09;18.57;;;11.73;;
25237;SDS011;13185;50.872;5.306;2022-12-18T13:05:31;20.53;;;10.97;;
25237;SDS011;13185;50.872;5.306;2022-12-18T13:08:06;18.42;;;11.23;;
25237;SDS011;13185;50.872;5.306;2022-12-18T13:10:35;18.07;;;11.17;;
25237;SDS011;13185;50.872;5.306;2022-12-18T13:13:06;18.10;;;10.77;;
25237;SDS011;13185;50.872;5.306;2022-12-18T13:20:38;20.83;;;11.63;;
25237;SDS011;13185;50.872;5.306;2022-12-18T13:23:28;17.10;;;11.30;;
25237;SDS011;13185;50.872;5.306;2022-12-18T13:25:58;22.33;;;12.77;;
25237;SDS011;13185;50.872;5.306;2022-12-18T13:31:10;22.43;;;13.20;;
25237;SDS011;13185;50.872;5.306;2022-12-18T13:33:37;20.50;;;12.73;;
25237;SDS011;13185;50.872;5.306;2022-12-18T13:38:42;22.13;;;13.13;;
25237;SDS011;13185;50.872;5.306;2022-12-18T13:46:20;21.93;;;13.70;;
25237;SDS011;13185;50.872;5.306;2022-12-18T13:51:41;21.03;;;12.20;;
25237;SDS011;13185;50.872;5.306;2022-12-18T13:56:47;20.57;;;12.60;;
25237;SDS011;13185;50.872;5.306;2022-12-18T13:59:23;21.17;;;12.53;;
25237;SDS011;13185;50.872;5.306;2022-12-18T14:01:51;19.17;;;11.57;;
25237;SDS011;13185;50.872;5.306;2022-12-18T14:04:20;19.57;;;13.00;;
25237;SDS011;13185;50.872;5.306;2022-12-18T14:06:49;21.17;;;13.30;;
25237;SDS011;13185;50.872;5.306;2022-12-18T14:09:21;22.90;;;14.03;;
25237;SDS011;13185;50.872;5.306;2022-12-18T14:11:50;20.83;;;12.93;;
25237;SDS011;13185;50.872;5.306;2022-12-18T14:14:18;20.63;;;14.37;;
25237;SDS011;13185;50.872;5.306;2022-12-18T14:16:45;22.67;;;12.83;;
25237;SDS011;13185;50.872;5.306;2022-12-18T14:19:14;21.53;;;12.63;;
25237;SDS011;13185;50.872;5.306;2022-12-18T14:21:46;20.73;;;11.43;;
25237;SDS011;13185;50.872;5.306;2022-12-18T14:26:43;20.50;;;11.00;;
25237;SDS011;13185;50.872;5.306;2022-12-18T14:29:20;16.33;;;9.87;;
25237;SDS011;13185;50.872;5.306;2022-12-18T14:34:41;16.23;;;9.70;;
25237;SDS011;13185;50.872;5.306;2022-12-18T14:37:09;17.77;;;9.97;;
25237;SDS011;13185;50.872;5.306;2022-12-18T14:39:36;16.13;;;9.97;;
25237;SDS011;13185;50.872;5.306;2022-12-18T14:42:01;16.80;;;10.63;;
25237;SDS011;13185;50.872;5.306;2022-12-18T14:44:27;18.30;;;10.47;;
25237;SDS011;13185;50.872;5.306;2022-12-18T14:46:52;17.70;;;11.03;;
25237;SDS011;13185;50.872;5.306;2022-12-18T14:49:26;16.47;;;10.20;;
25237;SDS011;13185;50.872;5.306;2022-12-18T14:52:06;15.57;;;9.67;;
25237;SDS011;13185;50.872;5.306;2022-12-18T14:54:45;17.73;;;10.43;;
25237;SDS011;13185;50.872;5.306;2022-12-18T14:59:40;25.60;;;11.90;;
25237;SDS011;13185;50.872;5.306;2022-12-18T15:07:54;20.57;;;12.00;;
25237;SDS011;13185;50.872;5.306;2022-12-18T15:10:23;20.70;;;11.97;;
25237;SDS011;13185;50.872;5.306;2022-12-18T15:18:02;17.50;;;10.67;;
25237;SDS011;13185;50.872;5.306;2022-12-18T15:20:28;20.10;;;12.20;;
25237;SDS011;13185;50.872;5.306;2022-12-18T15:22:57;31.13;;;12.40;;
25237;SDS011;13185;50.872;5.306;2022-12-18T15:25:31;21.83;;;12.80;;
25237;SDS011;13185;50.872;5.306;2022-12-18T15:28:02;21.20;;;11.20;;
25237;SDS011;13185;50.872;5.306;2022-12-18T15:30:28;17.90;;;11.07;;
25237;SDS011;13185;50.872;5.306;2022-12-18T15:33:16;19.73;;;11.73;;
25237;SDS011;13185;50.872;5.306;2022-12-18T15:35:47;20.85;;;12.57;;
25237;SDS011;13185;50.872;5.306;2022-12-18T15:38:24;22.33;;;11.70;;
25237;SDS011;13185;50.872;5.306;2022-12-18T15:40:50;19.60;;;11.70;;
25237;SDS011;13185;50.872;5.306;2022-12-18T15:43:17;19.30;;;11.90;;
25237;SDS011;13185;50.872;5.306;2022-12-18T15:46:10;20.47;;;12.17;;
25237;SDS011;13185;50.872;5.306;2022-12-18T15:48:41;20.37;;;11.63;;
25237;SDS011;13185;50.872;5.306;2022-12-18T15:53:45;20.17;;;11.73;;
25237;SDS011;13185;50.872;5.306;2022-12-18T15:56:12;20.93;;;11.70;;
25237;SDS011;13185;50.872;5.306;2022-12-18T15:59:15;20.30;;;12.07;;
25237;SDS011;13185;50.872;5.306;2022-12-18T16:01:49;21.03;;;11.70;;
25237;SDS011;13185;50.872;5.306;2022-12-18T16:06:42;22.07;;;12.43;;
25237;SDS011;13185;50.872;5.306;2022-12-18T16:09:08;20.90;;;11.80;;
25237;SDS011;13185;50.872;5.306;2022-12-18T16:11:34;22.47;;;12.67;;
25237;SDS011;13185;50.872;5.306;2022-12-18T16:14:27;20.87;;;12.27;;
25237;SDS011;13185;50.872;5.306;2022-12-18T16:16:56;21.17;;;12.43;;
25237;SDS011;13185;50.872;5.306;2022-12-18T16:19:23;22.67;;;12.93;;
25237;SDS011;13185;50.872;5.306;2022-12-18T16:21:49;22.37;;;12.47;;
25237;SDS011;13185;50.872;5.306;2022-12-18T16:24:17;22.23;;;12.80;;
25237;SDS011;13185;50.872;5.306;2022-12-18T16:26:44;21.47;;;12.47;;
25237;SDS011;13185;50.872;5.306;2022-12-18T16:29:10;21.20;;;13.17;;
25237;SDS011;13185;50.872;5.306;2022-12-18T16:31:36;22.63;;;13.57;;
25237;SDS011;13185;50.872;5.306;2022-12-18T16:34:09;17.70;;;11.47;;
25237;SDS011;13185;50.872;5.306;2022-12-18T16:36:55;20.63;;;11.60;;
25237;SDS011;13185;50.872;5.306;2022-12-18T16:39:22;20.93;;;11.93;;
25237;SDS011;13185;50.872;5.306;2022-12-18T16:41:47;22.17;;;12.50;;
25237;SDS011;13185;50.872;5.306;2022-12-18T16:44:13;19.30;;;12.37;;